sensor_id;sensor_type;location;lat;lon;timestamp;P1;durP1;ratioP1;P2;durP2;ratioP2
6205;SDS011;3136;48.788;9.772;2024-01-25T00:02:03;13.57;;;3.40;;
6205;SDS011;3136;48.788;9.772;2024-01-25T00:04:29;12.17;;;3.43;;
6205;SDS011;3136;48.788;9.772;2024-01-25T00:06:54;12.93;;;2.63;;
6205;SDS011;3136;48.788;9.772;2024-01-25T00:09:20;11.07;;;2.87;;
6205;SDS011;3136;48.788;9.772;2024-01-25T00:11:45;15.83;;;3.37;;
6205;SDS011;3136;48.788;9.772;2024-01-25T00:14:11;11.47;;;3.17;;
6205;SDS011;3136;48.788;9.772;2024-01-25T00:16:40;9.90;;;2.97;;
6205;SDS011;3136;48.788;9.772;2024-01-25T00:19:06;8.80;;;2.57;;
6205;SDS011;3136;48.788;9.772;2024-01-25T00:21:32;11.37;;;2.80;;
6205;SDS011;3136;48.788;9.772;2024-01-25T00:23:58;12.03;;;3.10;;
6205;SDS011;3136;48.788;9.772;2024-01-25T00:26:23;15.47;;;2.90;;
6205;SDS011;3136;48.788;9.772;2024-01-25T00:28:49;13.93;;;3.07;;
6205;SDS011;3136;48.788;9.772;2024-01-25T00:31:14;11.93;;;2.83;;
6205;SDS011;3136;48.788;9.772;2024-01-25T00:33:40;15.73;;;3.30;;
6205;SDS011;3136;48.788;9.772;2024-01-25T00:36:05;14.00;;;3.23;;
6205;SDS011;3136;48.788;9.772;2024-01-25T00:38:32;18.17;;;2.90;;
6205;SDS011;3136;48.788;9.772;2024-01-25T00:40:57;17.00;;;3.60;;
6205;SDS011;3136;48.788;9.772;2024-01-25T00:43:23;18.83;;;3.40;;
6205;SDS011;3136;48.788;9.772;2024-01-25T00:45:49;15.53;;;3.27;;
6205;SDS011;3136;48.788;9.772;2024-01-25T00:48:15;14.87;;;3.60;;
6205;SDS011;3136;48.788;9.772;2024-01-25T00:50:41;15.80;;;3.20;;
6205;SDS011;3136;48.788;9.772;2024-01-25T00:53:07;22.80;;;5.03;;
6205;SDS011;3136;48.788;9.772;2024-01-25T00:55:33;18.37;;;3.60;;
6205;SDS011;3136;48.788;9.772;2024-01-25T00:57:59;25.10;;;4.27;;
6205;SDS011;3136;48.788;9.772;2024-01-25T01:00:25;20.90;;;4.27;;
6205;SDS011;3136;48.788;9.772;2024-01-25T01:02:50;26.17;;;4.47;;
6205;SDS011;3136;48.788;9.772;2024-01-25T01:05:19;13.90;;;3.63;;
6205;SDS011;3136;48.788;9.772;2024-01-25T01:07:45;20.90;;;4.50;;
6205;SDS011;3136;48.788;9.772;2024-01-25T01:10:11;17.47;;;3.67;;
6205;SDS011;3136;48.788;9.772;2024-01-25T01:12:36;23.37;;;4.77;;
6205;SDS011;3136;48.788;9.772;2024-01-25T01:15:02;23.03;;;3.47;;
6205;SDS011;3136;48.788;9.772;2024-01-25T01:17:28;21.97;;;4.97;;
6205;SDS011;3136;48.788;9.772;2024-01-25T01:19:54;22.17;;;4.70;;
6205;SDS011;3136;48.788;9.772;2024-01-25T01:22:19;17.40;;;3.97;;
6205;SDS011;3136;48.788;9.772;2024-01-25T01:24:45;19.90;;;4.23;;
6205;SDS011;3136;48.788;9.772;2024-01-25T01:27:11;23.80;;;4.20;;
6205;SDS011;3136;48.788;9.772;2024-01-25T01:29:36;23.23;;;3.43;;
6205;SDS011;3136;48.788;9.772;2024-01-25T01:32:02;18.13;;;3.50;;
6205;SDS011;3136;48.788;9.772;2024-01-25T01:34:27;20.37;;;4.53;;
6205;SDS011;3136;48.788;9.772;2024-01-25T01:36:53;17.07;;;3.17;;
6205;SDS011;3136;48.788;9.772;2024-01-25T01:39:19;17.30;;;3.83;;
6205;SDS011;3136;48.788;9.772;2024-01-25T01:41:47;27.67;;;4.63;;
6205;SDS011;3136;48.788;9.772;2024-01-25T01:44:14;21.03;;;3.50;;
6205;SDS011;3136;48.788;9.772;2024-01-25T01:46:40;18.17;;;4.23;;
6205;SDS011;3136;48.788;9.772;2024-01-25T01:49:07;20.30;;;3.53;;
6205;SDS011;3136;48.788;9.772;2024-01-25T01:51:36;19.63;;;3.60;;
6205;SDS011;3136;48.788;9.772;2024-01-25T01:54:03;21.57;;;4.87;;
6205;SDS011;3136;48.788;9.772;2024-01-25T01:56:31;14.13;;;4.33;;
6205;SDS011;3136;48.788;9.772;2024-01-25T01:59:01;17.27;;;4.17;;
6205;SDS011;3136;48.788;9.772;2024-01-25T02:01:29;21.10;;;3.60;;
6205;SDS011;3136;48.788;9.772;2024-01-25T02:03:54;21.63;;;3.80;;
6205;SDS011;3136;48.788;9.772;2024-01-25T02:06:21;25.20;;;4.87;;
6205;SDS011;3136;48.788;9.772;2024-01-25T02:08:48;21.73;;;3.83;;
6205;SDS011;3136;48.788;9.772;2024-01-25T02:11:24;17.30;;;3.60;;
6205;SDS011;3136;48.788;9.772;2024-01-25T02:13:50;18.40;;;4.03;;
6205;SDS011;3136;48.788;9.772;2024-01-25T02:16:15;17.40;;;4.03;;
6205;SDS011;3136;48.788;9.772;2024-01-25T02:18:42;23.53;;;4.40;;
6205;SDS011;3136;48.788;9.772;2024-01-25T02:21:08;20.17;;;3.63;;
6205;SDS011;3136;48.788;9.772;2024-01-25T02:23:33;16.47;;;3.17;;
6205;SDS011;3136;48.788;9.772;2024-01-25T02:25:59;18.37;;;3.73;;
6205;SDS011;3136;48.788;9.772;2024-01-25T02:28:25;14.47;;;3.30;;
6205;SDS011;3136;48.788;9.772;2024-01-25T02:30:50;18.60;;;3.70;;
6205;SDS011;3136;48.788;9.772;2024-01-25T02:33:16;19.33;;;3.80;;
6205;SDS011;3136;48.788;9.772;2024-01-25T02:35:41;20.87;;;3.73;;
6205;SDS011;3136;48.788;9.772;2024-01-25T02:38:07;19.70;;;4.47;;
6205;SDS011;3136;48.788;9.772;2024-01-25T02:40:33;15.63;;;3.33;;
6205;SDS011;3136;48.788;9.772;2024-01-25T02:42:58;18.77;;;3.43;;
6205;SDS011;3136;48.788;9.772;2024-01-25T02:45:24;23.47;;;4.10;;
6205;SDS011;3136;48.788;9.772;2024-01-25T02:47:50;22.17;;;3.80;;
6205;SDS011;3136;48.788;9.772;2024-01-25T02:50:15;22.37;;;3.80;;
6205;SDS011;3136;48.788;9.772;2024-01-25T02:52:41;18.13;;;3.70;;
6205;SDS011;3136;48.788;9.772;2024-01-25T02:55:06;17.40;;;3.30;;
6205;SDS011;3136;48.788;9.772;2024-01-25T02:57:32;14.70;;;3.20;;
6205;SDS011;3136;48.788;9.772;2024-01-25T02:59:58;12.70;;;3.40;;
6205;SDS011;3136;48.788;9.772;2024-01-25T03:02:23;15.17;;;3.10;;
6205;SDS011;3136;48.788;9.772;2024-01-25T03:04:49;14.93;;;3.33;;
6205;SDS011;3136;48.788;9.772;2024-01-25T03:07:14;14.37;;;3.30;;
6205;SDS011;3136;48.788;9.772;2024-01-25T03:09:40;21.43;;;3.80;;
6205;SDS011;3136;48.788;9.772;2024-01-25T03:12:06;16.23;;;3.30;;
6205;SDS011;3136;48.788;9.772;2024-01-25T03:14:32;18.10;;;4.03;;
6205;SDS011;3136;48.788;9.772;2024-01-25T03:16:57;24.13;;;3.73;;
6205;SDS011;3136;48.788;9.772;2024-01-25T03:19:26;18.70;;;3.60;;
6205;SDS011;3136;48.788;9.772;2024-01-25T03:21:52;20.07;;;4.67;;
6205;SDS011;3136;48.788;9.772;2024-01-25T03:24:19;16.23;;;3.97;;
6205;SDS011;3136;48.788;9.772;2024-01-25T03:26:45;16.23;;;3.30;;
6205;SDS011;3136;48.788;9.772;2024-01-25T03:29:10;25.60;;;4.17;;
6205;SDS011;3136;48.788;9.772;2024-01-25T03:31:36;16.93;;;3.90;;
6205;SDS011;3136;48.788;9.772;2024-01-25T03:34:02;18.23;;;3.30;;
6205;SDS011;3136;48.788;9.772;2024-01-25T03:36:28;18.70;;;3.63;;
6205;SDS011;3136;48.788;9.772;2024-01-25T03:38:53;16.80;;;3.20;;
6205;SDS011;3136;48.788;9.772;2024-01-25T03:41:19;24.40;;;4.40;;
6205;SDS011;3136;48.788;9.772;2024-01-25T03:43:45;19.73;;;3.80;;
6205;SDS011;3136;48.788;9.772;2024-01-25T03:46:14;15.93;;;3.63;;
6205;SDS011;3136;48.788;9.772;2024-01-25T03:48:39;15.00;;;3.70;;
6205;SDS011;3136;48.788;9.772;2024-01-25T03:51:05;19.77;;;3.90;;
6205;SDS011;3136;48.788;9.772;2024-01-25T03:53:31;16.80;;;3.40;;
6205;SDS011;3136;48.788;9.772;2024-01-25T03:55:56;19.57;;;3.83;;
6205;SDS011;3136;48.788;9.772;2024-01-25T03:58:22;15.17;;;3.03;;
6205;SDS011;3136;48.788;9.772;2024-01-25T04:00:47;15.23;;;3.50;;
6205;SDS011;3136;48.788;9.772;2024-01-25T04:03:13;13.93;;;3.37;;
6205;SDS011;3136;48.788;9.772;2024-01-25T04:05:39;13.60;;;2.97;;
6205;SDS011;3136;48.788;9.772;2024-01-25T04:08:04;21.30;;;3.70;;
6205;SDS011;3136;48.788;9.772;2024-01-25T04:10:30;17.50;;;3.67;;
6205;SDS011;3136;48.788;9.772;2024-01-25T04:12:56;13.20;;;3.10;;
6205;SDS011;3136;48.788;9.772;2024-01-25T04:15:22;20.87;;;3.63;;
6205;SDS011;3136;48.788;9.772;2024-01-25T04:17:47;22.10;;;3.93;;
6205;SDS011;3136;48.788;9.772;2024-01-25T04:20:14;19.63;;;3.33;;
6205;SDS011;3136;48.788;9.772;2024-01-25T04:22:40;20.70;;;4.00;;
6205;SDS011;3136;48.788;9.772;2024-01-25T04:25:05;15.10;;;3.20;;
6205;SDS011;3136;48.788;9.772;2024-01-25T04:27:31;17.33;;;3.87;;
6205;SDS011;3136;48.788;9.772;2024-01-25T04:29:57;14.00;;;3.43;;
6205;SDS011;3136;48.788;9.772;2024-01-25T04:32:22;19.93;;;3.43;;
6205;SDS011;3136;48.788;9.772;2024-01-25T04:34:48;13.90;;;3.27;;
6205;SDS011;3136;48.788;9.772;2024-01-25T04:37:14;15.73;;;3.40;;
6205;SDS011;3136;48.788;9.772;2024-01-25T04:39:39;17.33;;;3.37;;
6205;SDS011;3136;48.788;9.772;2024-01-25T04:42:05;20.57;;;3.03;;
6205;SDS011;3136;48.788;9.772;2024-01-25T04:44:30;14.73;;;2.87;;
6205;SDS011;3136;48.788;9.772;2024-01-25T04:46:57;20.47;;;4.00;;
6205;SDS011;3136;48.788;9.772;2024-01-25T04:49:22;15.37;;;3.60;;
6205;SDS011;3136;48.788;9.772;2024-01-25T04:51:48;14.47;;;3.33;;
6205;SDS011;3136;48.788;9.772;2024-01-25T04:54:15;23.30;;;3.70;;
6205;SDS011;3136;48.788;9.772;2024-01-25T04:56:41;18.70;;;4.73;;
6205;SDS011;3136;48.788;9.772;2024-01-25T04:59:07;17.23;;;3.43;;
6205;SDS011;3136;48.788;9.772;2024-01-25T05:01:32;20.33;;;3.97;;
6205;SDS011;3136;48.788;9.772;2024-01-25T05:03:58;21.80;;;4.07;;
6205;SDS011;3136;48.788;9.772;2024-01-25T05:06:24;16.90;;;3.60;;
6205;SDS011;3136;48.788;9.772;2024-01-25T05:08:50;16.03;;;3.13;;
6205;SDS011;3136;48.788;9.772;2024-01-25T05:11:16;18.73;;;4.23;;
6205;SDS011;3136;48.788;9.772;2024-01-25T05:13:42;13.80;;;3.03;;
6205;SDS011;3136;48.788;9.772;2024-01-25T05:16:08;17.93;;;3.57;;
6205;SDS011;3136;48.788;9.772;2024-01-25T05:18:34;16.37;;;3.43;;
6205;SDS011;3136;48.788;9.772;2024-01-25T05:20:59;23.97;;;3.90;;
6205;SDS011;3136;48.788;9.772;2024-01-25T05:23:25;17.87;;;3.50;;
6205;SDS011;3136;48.788;9.772;2024-01-25T05:25:51;15.53;;;3.47;;
6205;SDS011;3136;48.788;9.772;2024-01-25T05:28:16;19.37;;;3.70;;
6205;SDS011;3136;48.788;9.772;2024-01-25T05:30:42;16.30;;;3.87;;
6205;SDS011;3136;48.788;9.772;2024-01-25T05:33:07;17.50;;;3.47;;
6205;SDS011;3136;48.788;9.772;2024-01-25T05:35:33;18.87;;;4.37;;
6205;SDS011;3136;48.788;9.772;2024-01-25T05:37:59;18.23;;;3.30;;
6205;SDS011;3136;48.788;9.772;2024-01-25T05:40:25;21.23;;;4.03;;
6205;SDS011;3136;48.788;9.772;2024-01-25T05:42:51;18.60;;;3.60;;
6205;SDS011;3136;48.788;9.772;2024-01-25T05:45:17;20.47;;;4.37;;
6205;SDS011;3136;48.788;9.772;2024-01-25T05:47:46;16.57;;;3.87;;
6205;SDS011;3136;48.788;9.772;2024-01-25T05:50:12;25.17;;;4.67;;
6205;SDS011;3136;48.788;9.772;2024-01-25T05:52:38;17.20;;;3.77;;
6205;SDS011;3136;48.788;9.772;2024-01-25T05:55:04;18.50;;;3.37;;
6205;SDS011;3136;48.788;9.772;2024-01-25T05:57:30;21.20;;;3.60;;
6205;SDS011;3136;48.788;9.772;2024-01-25T05:59:56;19.20;;;4.20;;
6205;SDS011;3136;48.788;9.772;2024-01-25T06:02:22;17.37;;;3.77;;
6205;SDS011;3136;48.788;9.772;2024-01-25T06:04:47;20.83;;;3.47;;
6205;SDS011;3136;48.788;9.772;2024-01-25T06:07:13;22.47;;;3.67;;
6205;SDS011;3136;48.788;9.772;2024-01-25T06:09:38;18.47;;;3.57;;
6205;SDS011;3136;48.788;9.772;2024-01-25T06:12:04;18.80;;;3.80;;
6205;SDS011;3136;48.788;9.772;2024-01-25T06:14:30;21.73;;;3.73;;
6205;SDS011;3136;48.788;9.772;2024-01-25T06:16:56;17.90;;;3.67;;
6205;SDS011;3136;48.788;9.772;2024-01-25T06:19:21;23.43;;;3.93;;
6205;SDS011;3136;48.788;9.772;2024-01-25T06:21:47;24.63;;;3.90;;
6205;SDS011;3136;48.788;9.772;2024-01-25T06:24:13;16.97;;;3.53;;
6205;SDS011;3136;48.788;9.772;2024-01-25T06:26:38;18.53;;;3.30;;
6205;SDS011;3136;48.788;9.772;2024-01-25T06:29:04;21.73;;;3.70;;
6205;SDS011;3136;48.788;9.772;2024-01-25T06:31:29;17.03;;;3.50;;
6205;SDS011;3136;48.788;9.772;2024-01-25T06:33:55;19.97;;;4.00;;
6205;SDS011;3136;48.788;9.772;2024-01-25T06:36:21;15.80;;;3.73;;
6205;SDS011;3136;48.788;9.772;2024-01-25T06:38:47;19.67;;;3.80;;
6205;SDS011;3136;48.788;9.772;2024-01-25T06:41:13;15.63;;;3.87;;
6205;SDS011;3136;48.788;9.772;2024-01-25T06:43:40;22.47;;;3.73;;
6205;SDS011;3136;48.788;9.772;2024-01-25T06:46:05;16.03;;;3.70;;
6205;SDS011;3136;48.788;9.772;2024-01-25T06:48:31;19.80;;;3.70;;
6205;SDS011;3136;48.788;9.772;2024-01-25T06:50:57;24.07;;;4.00;;
6205;SDS011;3136;48.788;9.772;2024-01-25T06:53:23;11.80;;;3.20;;
6205;SDS011;3136;48.788;9.772;2024-01-25T06:55:48;16.97;;;4.07;;
6205;SDS011;3136;48.788;9.772;2024-01-25T06:58:14;21.70;;;4.60;;
6205;SDS011;3136;48.788;9.772;2024-01-25T07:00:39;24.40;;;4.67;;
6205;SDS011;3136;48.788;9.772;2024-01-25T07:03:07;20.53;;;3.90;;
6205;SDS011;3136;48.788;9.772;2024-01-25T07:05:33;18.90;;;4.13;;
6205;SDS011;3136;48.788;9.772;2024-01-25T07:08:00;21.90;;;7.87;;
6205;SDS011;3136;48.788;9.772;2024-01-25T07:10:26;25.90;;;8.07;;
6205;SDS011;3136;48.788;9.772;2024-01-25T07:12:52;31.00;;;11.40;;
6205;SDS011;3136;48.788;9.772;2024-01-25T07:15:18;21.30;;;7.50;;
6205;SDS011;3136;48.788;9.772;2024-01-25T07:17:44;18.83;;;9.10;;
6205;SDS011;3136;48.788;9.772;2024-01-25T07:20:10;20.53;;;7.60;;
6205;SDS011;3136;48.788;9.772;2024-01-25T07:22:36;17.00;;;5.47;;
6205;SDS011;3136;48.788;9.772;2024-01-25T07:25:01;18.63;;;4.10;;
6205;SDS011;3136;48.788;9.772;2024-01-25T07:27:27;15.77;;;4.63;;
6205;SDS011;3136;48.788;9.772;2024-01-25T07:29:53;22.67;;;5.27;;
6205;SDS011;3136;48.788;9.772;2024-01-25T07:32:19;26.43;;;6.43;;
6205;SDS011;3136;48.788;9.772;2024-01-25T07:34:45;17.13;;;4.63;;
6205;SDS011;3136;48.788;9.772;2024-01-25T07:37:11;20.80;;;4.63;;
6205;SDS011;3136;48.788;9.772;2024-01-25T07:39:37;17.83;;;3.73;;
6205;SDS011;3136;48.788;9.772;2024-01-25T07:42:03;21.93;;;4.73;;
6205;SDS011;3136;48.788;9.772;2024-01-25T07:44:29;21.33;;;4.43;;
6205;SDS011;3136;48.788;9.772;2024-01-25T07:46:54;14.63;;;3.53;;
6205;SDS011;3136;48.788;9.772;2024-01-25T07:49:20;17.33;;;4.37;;
6205;SDS011;3136;48.788;9.772;2024-01-25T07:51:45;20.83;;;3.73;;
6205;SDS011;3136;48.788;9.772;2024-01-25T07:54:12;17.43;;;3.90;;
6205;SDS011;3136;48.788;9.772;2024-01-25T07:56:38;17.00;;;3.50;;
6205;SDS011;3136;48.788;9.772;2024-01-25T07:59:04;18.43;;;4.17;;
6205;SDS011;3136;48.788;9.772;2024-01-25T08:01:29;16.83;;;3.67;;
6205;SDS011;3136;48.788;9.772;2024-01-25T08:03:55;17.10;;;3.57;;
6205;SDS011;3136;48.788;9.772;2024-01-25T08:06:21;12.43;;;3.23;;
6205;SDS011;3136;48.788;9.772;2024-01-25T08:08:47;21.83;;;3.90;;
6205;SDS011;3136;48.788;9.772;2024-01-25T08:11:13;15.37;;;3.43;;
6205;SDS011;3136;48.788;9.772;2024-01-25T08:13:38;20.30;;;4.00;;
6205;SDS011;3136;48.788;9.772;2024-01-25T08:16:09;19.83;;;3.50;;
6205;SDS011;3136;48.788;9.772;2024-01-25T08:18:35;18.10;;;3.97;;
6205;SDS011;3136;48.788;9.772;2024-01-25T08:21:01;13.40;;;2.93;;
6205;SDS011;3136;48.788;9.772;2024-01-25T08:23:27;16.17;;;3.70;;
6205;SDS011;3136;48.788;9.772;2024-01-25T08:25:52;14.13;;;3.90;;
6205;SDS011;3136;48.788;9.772;2024-01-25T08:28:18;16.37;;;3.50;;
6205;SDS011;3136;48.788;9.772;2024-01-25T08:30:44;19.07;;;3.37;;
6205;SDS011;3136;48.788;9.772;2024-01-25T08:33:10;16.57;;;3.37;;
6205;SDS011;3136;48.788;9.772;2024-01-25T08:35:36;10.33;;;3.23;;
6205;SDS011;3136;48.788;9.772;2024-01-25T08:38:02;20.87;;;4.10;;
6205;SDS011;3136;48.788;9.772;2024-01-25T08:40:28;13.17;;;3.20;;
6205;SDS011;3136;48.788;9.772;2024-01-25T08:42:54;20.50;;;4.27;;
6205;SDS011;3136;48.788;9.772;2024-01-25T08:45:19;14.90;;;3.97;;
6205;SDS011;3136;48.788;9.772;2024-01-25T08:47:45;13.23;;;3.60;;
6205;SDS011;3136;48.788;9.772;2024-01-25T08:50:11;22.07;;;3.93;;
6205;SDS011;3136;48.788;9.772;2024-01-25T08:52:38;20.03;;;4.17;;
6205;SDS011;3136;48.788;9.772;2024-01-25T08:55:06;14.90;;;3.80;;
6205;SDS011;3136;48.788;9.772;2024-01-25T08:57:32;18.77;;;4.23;;
6205;SDS011;3136;48.788;9.772;2024-01-25T08:59:58;19.27;;;4.03;;
6205;SDS011;3136;48.788;9.772;2024-01-25T09:02:26;17.20;;;3.87;;
6205;SDS011;3136;48.788;9.772;2024-01-25T09:04:54;20.17;;;4.10;;
6205;SDS011;3136;48.788;9.772;2024-01-25T09:07:20;16.07;;;3.67;;
6205;SDS011;3136;48.788;9.772;2024-01-25T09:09:47;26.33;;;4.30;;
6205;SDS011;3136;48.788;9.772;2024-01-25T09:12:13;20.67;;;4.80;;
6205;SDS011;3136;48.788;9.772;2024-01-25T09:14:39;14.30;;;3.50;;
6205;SDS011;3136;48.788;9.772;2024-01-25T09:17:05;16.30;;;3.97;;
6205;SDS011;3136;48.788;9.772;2024-01-25T09:19:30;13.20;;;3.70;;
6205;SDS011;3136;48.788;9.772;2024-01-25T09:21:56;20.80;;;5.27;;
6205;SDS011;3136;48.788;9.772;2024-01-25T09:24:24;17.17;;;3.83;;
6205;SDS011;3136;48.788;9.772;2024-01-25T09:26:50;17.23;;;3.80;;
6205;SDS011;3136;48.788;9.772;2024-01-25T09:29:16;14.60;;;4.17;;
6205;SDS011;3136;48.788;9.772;2024-01-25T09:31:42;19.43;;;3.70;;
6205;SDS011;3136;48.788;9.772;2024-01-25T09:34:07;19.17;;;4.30;;
6205;SDS011;3136;48.788;9.772;2024-01-25T09:36:33;22.03;;;4.57;;
6205;SDS011;3136;48.788;9.772;2024-01-25T09:38:58;18.67;;;4.03;;
6205;SDS011;3136;48.788;9.772;2024-01-25T09:41:24;22.83;;;4.57;;
6205;SDS011;3136;48.788;9.772;2024-01-25T09:43:49;22.47;;;4.23;;
6205;SDS011;3136;48.788;9.772;2024-01-25T09:46:15;25.87;;;5.10;;
6205;SDS011;3136;48.788;9.772;2024-01-25T09:48:41;16.77;;;3.87;;
6205;SDS011;3136;48.788;9.772;2024-01-25T09:51:11;16.67;;;4.00;;
6205;SDS011;3136;48.788;9.772;2024-01-25T09:53:38;17.60;;;3.90;;
6205;SDS011;3136;48.788;9.772;2024-01-25T09:56:10;19.30;;;4.33;;
6205;SDS011;3136;48.788;9.772;2024-01-25T09:58:38;20.20;;;4.03;;
6205;SDS011;3136;48.788;9.772;2024-01-25T10:01:08;23.13;;;4.00;;
6205;SDS011;3136;48.788;9.772;2024-01-25T10:03:46;23.60;;;4.33;;
6205;SDS011;3136;48.788;9.772;2024-01-25T10:06:13;13.90;;;3.50;;
6205;SDS011;3136;48.788;9.772;2024-01-25T10:08:39;18.17;;;3.60;;
6205;SDS011;3136;48.788;9.772;2024-01-25T10:11:05;19.33;;;3.80;;
6205;SDS011;3136;48.788;9.772;2024-01-25T10:13:39;15.07;;;3.57;;
6205;SDS011;3136;48.788;9.772;2024-01-25T10:16:16;18.53;;;3.30;;
6205;SDS011;3136;48.788;9.772;2024-01-25T10:18:42;20.07;;;3.83;;
6205;SDS011;3136;48.788;9.772;2024-01-25T10:21:09;21.37;;;4.03;;
6205;SDS011;3136;48.788;9.772;2024-01-25T10:23:36;21.43;;;4.50;;
6205;SDS011;3136;48.788;9.772;2024-01-25T10:26:02;17.90;;;4.40;;
6205;SDS011;3136;48.788;9.772;2024-01-25T10:28:27;22.10;;;3.93;;
6205;SDS011;3136;48.788;9.772;2024-01-25T10:30:59;17.90;;;4.03;;
6205;SDS011;3136;48.788;9.772;2024-01-25T10:33:29;16.07;;;4.03;;
6205;SDS011;3136;48.788;9.772;2024-01-25T10:35:56;19.70;;;3.90;;
6205;SDS011;3136;48.788;9.772;2024-01-25T10:38:28;14.43;;;3.73;;
6205;SDS011;3136;48.788;9.772;2024-01-25T10:40:55;16.37;;;4.40;;
6205;SDS011;3136;48.788;9.772;2024-01-25T10:43:24;19.60;;;4.00;;
6205;SDS011;3136;48.788;9.772;2024-01-25T10:45:50;18.23;;;4.40;;
6205;SDS011;3136;48.788;9.772;2024-01-25T10:48:20;25.63;;;5.20;;
6205;SDS011;3136;48.788;9.772;2024-01-25T10:50:47;22.20;;;4.00;;
6205;SDS011;3136;48.788;9.772;2024-01-25T10:53:14;19.80;;;4.50;;
6205;SDS011;3136;48.788;9.772;2024-01-25T10:55:41;16.87;;;3.80;;
6205;SDS011;3136;48.788;9.772;2024-01-25T10:58:07;19.73;;;3.90;;
6205;SDS011;3136;48.788;9.772;2024-01-25T11:00:36;22.80;;;3.87;;
6205;SDS011;3136;48.788;9.772;2024-01-25T11:03:01;16.23;;;3.47;;
6205;SDS011;3136;48.788;9.772;2024-01-25T11:05:29;17.50;;;3.83;;
6205;SDS011;3136;48.788;9.772;2024-01-25T11:07:55;19.17;;;4.13;;
6205;SDS011;3136;48.788;9.772;2024-01-25T11:10:21;22.23;;;4.47;;
6205;SDS011;3136;48.788;9.772;2024-01-25T11:12:59;19.73;;;4.63;;
6205;SDS011;3136;48.788;9.772;2024-01-25T11:15:32;18.87;;;3.80;;
6205;SDS011;3136;48.788;9.772;2024-01-25T11:18:00;18.83;;;4.30;;
6205;SDS011;3136;48.788;9.772;2024-01-25T11:20:33;15.90;;;4.03;;
6205;SDS011;3136;48.788;9.772;2024-01-25T11:23:02;12.23;;;3.73;;
6205;SDS011;3136;48.788;9.772;2024-01-25T11:25:37;15.77;;;3.70;;
6205;SDS011;3136;48.788;9.772;2024-01-25T11:28:04;12.97;;;3.83;;
6205;SDS011;3136;48.788;9.772;2024-01-25T11:30:31;24.63;;;4.00;;
6205;SDS011;3136;48.788;9.772;2024-01-25T11:32:59;16.47;;;3.67;;
6205;SDS011;3136;48.788;9.772;2024-01-25T11:35:25;13.13;;;3.40;;
6205;SDS011;3136;48.788;9.772;2024-01-25T11:37:51;16.50;;;3.60;;
6205;SDS011;3136;48.788;9.772;2024-01-25T11:40:17;16.17;;;3.70;;
6205;SDS011;3136;48.788;9.772;2024-01-25T11:42:44;19.63;;;3.83;;
6205;SDS011;3136;48.788;9.772;2024-01-25T11:45:12;12.20;;;3.70;;
6205;SDS011;3136;48.788;9.772;2024-01-25T11:47:39;16.73;;;3.57;;
6205;SDS011;3136;48.788;9.772;2024-01-25T11:50:05;13.87;;;3.77;;
6205;SDS011;3136;48.788;9.772;2024-01-25T11:52:32;13.70;;;3.50;;
6205;SDS011;3136;48.788;9.772;2024-01-25T11:54:58;15.47;;;3.83;;
6205;SDS011;3136;48.788;9.772;2024-01-25T11:57:28;12.53;;;3.00;;
6205;SDS011;3136;48.788;9.772;2024-01-25T11:59:55;17.40;;;3.63;;
6205;SDS011;3136;48.788;9.772;2024-01-25T12:02:21;13.60;;;3.33;;
6205;SDS011;3136;48.788;9.772;2024-01-25T12:04:47;15.03;;;3.07;;
6205;SDS011;3136;48.788;9.772;2024-01-25T12:07:14;12.50;;;3.00;;
6205;SDS011;3136;48.788;9.772;2024-01-25T12:09:40;15.23;;;3.37;;
6205;SDS011;3136;48.788;9.772;2024-01-25T12:12:06;12.93;;;3.10;;
6205;SDS011;3136;48.788;9.772;2024-01-25T12:14:34;14.93;;;3.57;;
6205;SDS011;3136;48.788;9.772;2024-01-25T12:17:00;15.53;;;3.90;;
6205;SDS011;3136;48.788;9.772;2024-01-25T12:19:27;14.77;;;2.80;;
6205;SDS011;3136;48.788;9.772;2024-01-25T12:21:53;13.23;;;2.77;;
6205;SDS011;3136;48.788;9.772;2024-01-25T12:24:21;12.30;;;2.70;;
6205;SDS011;3136;48.788;9.772;2024-01-25T12:26:46;12.87;;;2.93;;
6205;SDS011;3136;48.788;9.772;2024-01-25T12:29:12;12.77;;;3.77;;
6205;SDS011;3136;48.788;9.772;2024-01-25T12:31:38;11.90;;;3.00;;
6205;SDS011;3136;48.788;9.772;2024-01-25T12:34:03;18.70;;;4.00;;
6205;SDS011;3136;48.788;9.772;2024-01-25T12:36:39;13.47;;;3.40;;
6205;SDS011;3136;48.788;9.772;2024-01-25T12:39:05;10.63;;;2.60;;
6205;SDS011;3136;48.788;9.772;2024-01-25T12:41:31;13.10;;;3.17;;
6205;SDS011;3136;48.788;9.772;2024-01-25T12:43:56;13.20;;;2.83;;
6205;SDS011;3136;48.788;9.772;2024-01-25T12:46:22;14.40;;;3.17;;
6205;SDS011;3136;48.788;9.772;2024-01-25T12:48:47;12.60;;;3.43;;
6205;SDS011;3136;48.788;9.772;2024-01-25T12:51:13;12.20;;;3.10;;
6205;SDS011;3136;48.788;9.772;2024-01-25T12:53:38;13.13;;;2.80;;
6205;SDS011;3136;48.788;9.772;2024-01-25T12:56:04;17.70;;;3.50;;
6205;SDS011;3136;48.788;9.772;2024-01-25T12:58:30;14.07;;;2.67;;
6205;SDS011;3136;48.788;9.772;2024-01-25T13:00:55;12.40;;;2.57;;
6205;SDS011;3136;48.788;9.772;2024-01-25T13:03:21;10.57;;;3.27;;
6205;SDS011;3136;48.788;9.772;2024-01-25T13:05:46;8.37;;;2.40;;
6205;SDS011;3136;48.788;9.772;2024-01-25T13:08:12;14.63;;;3.20;;
6205;SDS011;3136;48.788;9.772;2024-01-25T13:10:37;11.33;;;3.10;;
6205;SDS011;3136;48.788;9.772;2024-01-25T13:13:03;12.03;;;2.87;;
6205;SDS011;3136;48.788;9.772;2024-01-25T13:15:28;12.87;;;3.00;;
6205;SDS011;3136;48.788;9.772;2024-01-25T13:17:54;10.20;;;2.43;;
6205;SDS011;3136;48.788;9.772;2024-01-25T13:20:20;8.53;;;2.73;;
6205;SDS011;3136;48.788;9.772;2024-01-25T13:22:45;9.83;;;2.83;;
6205;SDS011;3136;48.788;9.772;2024-01-25T13:25:11;12.67;;;3.27;;
6205;SDS011;3136;48.788;9.772;2024-01-25T13:27:37;10.97;;;2.80;;
6205;SDS011;3136;48.788;9.772;2024-01-25T13:30:02;9.50;;;2.80;;
6205;SDS011;3136;48.788;9.772;2024-01-25T13:32:30;12.37;;;3.20;;
6205;SDS011;3136;48.788;9.772;2024-01-25T13:34:55;8.93;;;2.37;;
6205;SDS011;3136;48.788;9.772;2024-01-25T13:37:21;10.97;;;3.00;;
6205;SDS011;3136;48.788;9.772;2024-01-25T13:39:47;11.40;;;2.90;;
6205;SDS011;3136;48.788;9.772;2024-01-25T13:42:13;13.33;;;3.27;;
6205;SDS011;3136;48.788;9.772;2024-01-25T13:44:38;9.63;;;2.73;;
6205;SDS011;3136;48.788;9.772;2024-01-25T13:47:04;12.80;;;3.40;;
6205;SDS011;3136;48.788;9.772;2024-01-25T13:49:29;12.03;;;3.17;;
6205;SDS011;3136;48.788;9.772;2024-01-25T13:51:55;14.23;;;3.37;;
6205;SDS011;3136;48.788;9.772;2024-01-25T13:54:21;11.73;;;3.00;;
6205;SDS011;3136;48.788;9.772;2024-01-25T13:56:46;13.13;;;3.10;;
6205;SDS011;3136;48.788;9.772;2024-01-25T13:59:12;8.83;;;2.87;;
6205;SDS011;3136;48.788;9.772;2024-01-25T14:01:37;12.83;;;2.90;;
6205;SDS011;3136;48.788;9.772;2024-01-25T14:04:03;10.93;;;3.40;;
6205;SDS011;3136;48.788;9.772;2024-01-25T14:06:29;11.37;;;3.20;;
6205;SDS011;3136;48.788;9.772;2024-01-25T14:08:54;14.53;;;3.23;;
6205;SDS011;3136;48.788;9.772;2024-01-25T14:11:20;13.70;;;3.37;;
6205;SDS011;3136;48.788;9.772;2024-01-25T14:13:46;9.90;;;2.77;;
6205;SDS011;3136;48.788;9.772;2024-01-25T14:16:11;11.50;;;3.00;;
6205;SDS011;3136;48.788;9.772;2024-01-25T14:18:42;10.90;;;3.13;;
6205;SDS011;3136;48.788;9.772;2024-01-25T14:21:08;12.27;;;3.13;;
6205;SDS011;3136;48.788;9.772;2024-01-25T14:23:33;11.77;;;2.70;;
6205;SDS011;3136;48.788;9.772;2024-01-25T14:25:59;16.93;;;3.47;;
6205;SDS011;3136;48.788;9.772;2024-01-25T14:28:24;11.37;;;2.87;;
6205;SDS011;3136;48.788;9.772;2024-01-25T14:30:50;12.03;;;3.07;;
6205;SDS011;3136;48.788;9.772;2024-01-25T14:33:15;10.50;;;2.87;;
6205;SDS011;3136;48.788;9.772;2024-01-25T14:35:41;9.60;;;2.60;;
6205;SDS011;3136;48.788;9.772;2024-01-25T14:38:06;13.70;;;3.17;;
6205;SDS011;3136;48.788;9.772;2024-01-25T14:40:32;14.37;;;2.80;;
6205;SDS011;3136;48.788;9.772;2024-01-25T14:42:58;15.97;;;3.30;;
6205;SDS011;3136;48.788;9.772;2024-01-25T14:45:23;11.57;;;2.53;;
6205;SDS011;3136;48.788;9.772;2024-01-25T14:47:49;11.10;;;2.80;;
6205;SDS011;3136;48.788;9.772;2024-01-25T14:50:15;11.57;;;2.70;;
6205;SDS011;3136;48.788;9.772;2024-01-25T14:52:40;18.80;;;3.30;;
6205;SDS011;3136;48.788;9.772;2024-01-25T14:55:06;11.73;;;2.47;;
6205;SDS011;3136;48.788;9.772;2024-01-25T14:57:32;12.60;;;3.00;;